Picacho — EB2438 — position and weather

sailwx.info

Track history (hours):
 
Tides and Currents Weather Stations Pressure Air Temp Water Temp Dewpoint Dewpoint Depression Visibility Wind Speed Wind Dir Waves Ship Positions

Picacho

Last reported at 2018-Feb-03 00:26 UTC. Time now 2018-Feb-25 00:09 UTC.
Position N 28°09' W 015°26'.
Warning: this ship's position is 21 days out of date.

Length 24 m.

Type: Tug. MMSI: 224091140.

Date/timePositionNaut miles runAvg speedWind from/ knotsBaromVisibWave heightAir tempDewpointWater temp
2018-Feb-03 00:26N 28°09' W 015°26'3 7.0
2018-Feb-02 23:57N 28°07' W 015°22'5 9.4
2018-Feb-02 23:26N 28°06' W 015°17'5 9.7
2018-Feb-02 22:56N 28°06' W 015°11'5 9.6
2018-Feb-02 22:26N 28°06' W 015°06'5 9.3
2018-Feb-02 21:55N 28°06' W 015°01'5 9.3
2018-Feb-02 21:25N 28°05' W 014°55'3 0.2
2018-Feb-02 01:20N 28°04' W 014°52'3 8.6
2018-Feb-02 01:00N 28°04' W 014°56'4 8.3
2018-Feb-02 00:30N 28°04' W 015°00'4 8.4
2018-Feb-02 00:00N 28°05' W 015°05'4 8.1
2018-Feb-01 23:30N 28°06' W 015°09'4 8.2
2018-Feb-01 23:00N 28°06' W 015°14'8 8.0
2018-Feb-01 22:00N 28°07' W 015°23'3 5.2
2018-Feb-01 21:30N 28°09' W 015°26'  
2018-Jan-25 22:33N 28°07' W 015°24'0 9.3
2018-Jan-25 22:30N 28°07' W 015°24'5 9.3
2018-Jan-25 22:00N 28°06' W 015°19'5 9.5
2018-Jan-25 21:30N 28°06' W 015°13'5 9.3
2018-Jan-25 21:00N 28°06' W 015°08'5 9.5
2018-Jan-25 20:30N 28°06' W 015°03'5 9.6
2018-Jan-25 20:00N 28°06' W 014°57'5 9.6
2018-Jan-25 19:30N 28°05' W 014°52'4 0.2
2018-Jan-24 19:33N 28°03' W 014°48'1 9.3
2018-Jan-24 19:26N 28°04' W 014°49'5 9.1
2018-Jan-24 18:55N 28°04' W 014°54'5 9.1
2018-Jan-24 18:25N 28°04' W 014°59'6 9.3
2018-Jan-24 17:43N 28°05' W 015°07'  
Track history (hours):
 
Tides and Currents Weather Stations Pressure Air Temp Water Temp Dewpoint Dewpoint Depression Visibility Wind Speed Wind Dir Waves Ship Positions

Picacho

Last reported at 2018-Feb-03 00:26 UTC. Time now 2018-Feb-25 00:09 UTC.
Position N 28°09' W 015°26'.
Warning: this ship's position is 21 days out of date.

Length 24 m.

Type: Tug. MMSI: 224091140.

Date/timePositionNaut miles runAvg speedWind from/ knotsBaromVisibWave heightAir tempDewpointWater temp
2018-Feb-03 00:26N 28°09' W 015°26'3 7.0
2018-Feb-02 23:57N 28°07' W 015°22'5 9.4
2018-Feb-02 23:26N 28°06' W 015°17'5 9.7
2018-Feb-02 22:56N 28°06' W 015°11'5 9.6
2018-Feb-02 22:26N 28°06' W 015°06'5 9.3
2018-Feb-02 21:55N 28°06' W 015°01'5 9.3
2018-Feb-02 21:25N 28°05' W 014°55'3 0.2
2018-Feb-02 01:20N 28°04' W 014°52'3 8.6
2018-Feb-02 01:00N 28°04' W 014°56'4 8.3
2018-Feb-02 00:30N 28°04' W 015°00'4 8.4
2018-Feb-02 00:00N 28°05' W 015°05'4 8.1
2018-Feb-01 23:30N 28°06' W 015°09'4 8.2
2018-Feb-01 23:00N 28°06' W 015°14'8 8.0
2018-Feb-01 22:00N 28°07' W 015°23'3 5.2
2018-Feb-01 21:30N 28°09' W 015°26'  
2018-Jan-25 22:33N 28°07' W 015°24'0 9.3
2018-Jan-25 22:30N 28°07' W 015°24'5 9.3
2018-Jan-25 22:00N 28°06' W 015°19'5 9.5
2018-Jan-25 21:30N 28°06' W 015°13'5 9.3
2018-Jan-25 21:00N 28°06' W 015°08'5 9.5
2018-Jan-25 20:30N 28°06' W 015°03'5 9.6
2018-Jan-25 20:00N 28°06' W 014°57'5 9.6
2018-Jan-25 19:30N 28°05' W 014°52'4 0.2
2018-Jan-24 19:33N 28°03' W 014°48'1 9.3
2018-Jan-24 19:26N 28°04' W 014°49'5 9.1
2018-Jan-24 18:55N 28°04' W 014°54'5 9.1
2018-Jan-24 18:25N 28°04' W 014°59'6 9.3
2018-Jan-24 17:43N 28°05' W 015°07'  

Dump ship's entire track history